sensor_id;sensor_type;location;lat;lon;timestamp;P1;durP1;ratioP1;P2;durP2;ratioP2
58978;SDS011;44763;50.464;30.612;2023-11-21T00:01:23;14.30;;;10.30;;
58978;SDS011;44763;50.464;30.612;2023-11-21T00:03:25;18.70;;;12.80;;
58978;SDS011;44763;50.464;30.612;2023-11-21T00:05:30;17.00;;;11.90;;
58978;SDS011;44763;50.464;30.612;2023-11-21T00:07:32;15.10;;;11.10;;
58978;SDS011;44763;50.464;30.612;2023-11-21T00:09:34;19.70;;;13.40;;
58978;SDS011;44763;50.464;30.612;2023-11-21T00:11:38;16.40;;;11.90;;
58978;SDS011;44763;50.464;30.612;2023-11-21T00:13:41;21.70;;;13.30;;
58978;SDS011;44763;50.464;30.612;2023-11-21T00:15:43;16.30;;;11.00;;
58978;SDS011;44763;50.464;30.612;2023-11-21T00:17:44;17.60;;;12.20;;
58978;SDS011;44763;50.464;30.612;2023-11-21T00:19:48;18.30;;;13.10;;
58978;SDS011;44763;50.464;30.612;2023-11-21T00:21:50;21.20;;;13.30;;
58978;SDS011;44763;50.464;30.612;2023-11-21T00:23:52;20.60;;;15.20;;
58978;SDS011;44763;50.464;30.612;2023-11-21T00:25:54;19.10;;;13.50;;
58978;SDS011;44763;50.464;30.612;2023-11-21T00:27:56;19.50;;;13.60;;
58978;SDS011;44763;50.464;30.612;2023-11-21T00:29:58;24.50;;;14.50;;
58978;SDS011;44763;50.464;30.612;2023-11-21T00:32:00;19.90;;;14.40;;
58978;SDS011;44763;50.464;30.612;2023-11-21T00:34:04;14.70;;;12.20;;
58978;SDS011;44763;50.464;30.612;2023-11-21T00:36:11;18.80;;;11.10;;
58978;SDS011;44763;50.464;30.612;2023-11-21T00:38:14;22.70;;;12.00;;
58978;SDS011;44763;50.464;30.612;2023-11-21T00:40:16;14.80;;;11.30;;
58978;SDS011;44763;50.464;30.612;2023-11-21T00:42:21;21.80;;;14.10;;
58978;SDS011;44763;50.464;30.612;2023-11-21T00:44:23;19.80;;;13.90;;
58978;SDS011;44763;50.464;30.612;2023-11-21T00:46:25;18.00;;;12.50;;
58978;SDS011;44763;50.464;30.612;2023-11-21T00:48:30;20.60;;;13.30;;
58978;SDS011;44763;50.464;30.612;2023-11-21T00:50:31;18.50;;;12.90;;
58978;SDS011;44763;50.464;30.612;2023-11-21T00:52:34;20.90;;;13.90;;
58978;SDS011;44763;50.464;30.612;2023-11-21T00:54:37;20.80;;;14.00;;
58978;SDS011;44763;50.464;30.612;2023-11-21T00:56:39;21.70;;;15.10;;
58978;SDS011;44763;50.464;30.612;2023-11-21T00:58:43;18.00;;;12.70;;
58978;SDS011;44763;50.464;30.612;2023-11-21T01:00:45;19.80;;;13.30;;
58978;SDS011;44763;50.464;30.612;2023-11-21T01:02:49;19.60;;;13.30;;
58978;SDS011;44763;50.464;30.612;2023-11-21T01:04:51;20.80;;;12.30;;
58978;SDS011;44763;50.464;30.612;2023-11-21T01:06:53;18.80;;;13.30;;
58978;SDS011;44763;50.464;30.612;2023-11-21T01:08:55;17.50;;;12.00;;
58978;SDS011;44763;50.464;30.612;2023-11-21T01:10:58;18.60;;;12.10;;
58978;SDS011;44763;50.464;30.612;2023-11-21T01:13:00;25.60;;;13.30;;
58978;SDS011;44763;50.464;30.612;2023-11-21T01:15:04;18.60;;;12.70;;
58978;SDS011;44763;50.464;30.612;2023-11-21T01:17:08;14.90;;;10.80;;
58978;SDS011;44763;50.464;30.612;2023-11-21T01:19:11;19.10;;;10.90;;
58978;SDS011;44763;50.464;30.612;2023-11-21T01:21:12;13.80;;;11.20;;
58978;SDS011;44763;50.464;30.612;2023-11-21T01:23:14;18.10;;;13.40;;
58978;SDS011;44763;50.464;30.612;2023-11-21T01:25:17;20.80;;;13.00;;
58978;SDS011;44763;50.464;30.612;2023-11-21T01:27:19;13.90;;;11.30;;
58978;SDS011;44763;50.464;30.612;2023-11-21T01:29:21;16.30;;;10.60;;
58978;SDS011;44763;50.464;30.612;2023-11-21T01:31:23;19.00;;;11.30;;
58978;SDS011;44763;50.464;30.612;2023-11-21T01:33:25;15.40;;;11.20;;
58978;SDS011;44763;50.464;30.612;2023-11-21T01:35:27;15.30;;;11.30;;
58978;SDS011;44763;50.464;30.612;2023-11-21T01:37:29;18.40;;;11.20;;
58978;SDS011;44763;50.464;30.612;2023-11-21T01:39:32;15.10;;;11.50;;
58978;SDS011;44763;50.464;30.612;2023-11-21T01:41:34;16.00;;;11.00;;
58978;SDS011;44763;50.464;30.612;2023-11-21T01:43:36;15.00;;;11.10;;
58978;SDS011;44763;50.464;30.612;2023-11-21T01:45:39;16.80;;;11.20;;
58978;SDS011;44763;50.464;30.612;2023-11-21T01:47:41;16.70;;;11.40;;
58978;SDS011;44763;50.464;30.612;2023-11-21T01:51:49;14.70;;;10.40;;
58978;SDS011;44763;50.464;30.612;2023-11-21T01:53:52;17.70;;;11.70;;
58978;SDS011;44763;50.464;30.612;2023-11-21T01:55:55;13.10;;;10.50;;
58978;SDS011;44763;50.464;30.612;2023-11-21T01:58:00;13.90;;;10.60;;
58978;SDS011;44763;50.464;30.612;2023-11-21T02:00:05;13.50;;;10.30;;
58978;SDS011;44763;50.464;30.612;2023-11-21T02:02:17;12.80;;;10.20;;
58978;SDS011;44763;50.464;30.612;2023-11-21T02:04:19;17.50;;;12.90;;
58978;SDS011;44763;50.464;30.612;2023-11-21T02:06:23;17.60;;;12.00;;
58978;SDS011;44763;50.464;30.612;2023-11-21T02:10:30;17.30;;;11.40;;
58978;SDS011;44763;50.464;30.612;2023-11-21T02:12:34;19.10;;;12.40;;
58978;SDS011;44763;50.464;30.612;2023-11-21T02:14:37;19.30;;;12.40;;
58978;SDS011;44763;50.464;30.612;2023-11-21T02:16:40;18.60;;;12.10;;
58978;SDS011;44763;50.464;30.612;2023-11-21T02:18:48;19.00;;;11.50;;
58978;SDS011;44763;50.464;30.612;2023-11-21T02:20:51;19.20;;;10.80;;
58978;SDS011;44763;50.464;30.612;2023-11-21T02:22:53;14.60;;;11.20;;
58978;SDS011;44763;50.464;30.612;2023-11-21T02:25:00;16.60;;;11.70;;
58978;SDS011;44763;50.464;30.612;2023-11-21T02:27:02;17.00;;;12.20;;
58978;SDS011;44763;50.464;30.612;2023-11-21T02:29:04;18.10;;;12.40;;
58978;SDS011;44763;50.464;30.612;2023-11-21T02:31:06;16.70;;;11.60;;
58978;SDS011;44763;50.464;30.612;2023-11-21T02:33:09;18.40;;;11.80;;
58978;SDS011;44763;50.464;30.612;2023-11-21T02:35:11;12.70;;;11.20;;
58978;SDS011;44763;50.464;30.612;2023-11-21T02:37:14;17.40;;;11.70;;
58978;SDS011;44763;50.464;30.612;2023-11-21T02:39:16;14.60;;;12.00;;
58978;SDS011;44763;50.464;30.612;2023-11-21T02:41:18;14.20;;;11.70;;
58978;SDS011;44763;50.464;30.612;2023-11-21T02:43:20;18.80;;;10.90;;
58978;SDS011;44763;50.464;30.612;2023-11-21T02:45:22;14.50;;;11.00;;
58978;SDS011;44763;50.464;30.612;2023-11-21T02:47:26;18.00;;;11.60;;
58978;SDS011;44763;50.464;30.612;2023-11-21T02:49:28;16.50;;;11.30;;
58978;SDS011;44763;50.464;30.612;2023-11-21T02:51:30;19.80;;;12.90;;
58978;SDS011;44763;50.464;30.612;2023-11-21T02:53:33;15.80;;;12.00;;
58978;SDS011;44763;50.464;30.612;2023-11-21T02:55:36;16.20;;;13.40;;
58978;SDS011;44763;50.464;30.612;2023-11-21T02:57:38;19.40;;;14.50;;
58978;SDS011;44763;50.464;30.612;2023-11-21T02:59:40;17.40;;;13.30;;
58978;SDS011;44763;50.464;30.612;2023-11-21T03:01:42;15.80;;;12.00;;
58978;SDS011;44763;50.464;30.612;2023-11-21T03:03:44;19.80;;;14.20;;
58978;SDS011;44763;50.464;30.612;2023-11-21T03:05:46;19.40;;;13.50;;
58978;SDS011;44763;50.464;30.612;2023-11-21T03:07:48;18.20;;;13.40;;
58978;SDS011;44763;50.464;30.612;2023-11-21T03:09:49;18.70;;;13.30;;
58978;SDS011;44763;50.464;30.612;2023-11-21T03:11:52;21.40;;;15.60;;
58978;SDS011;44763;50.464;30.612;2023-11-21T03:13:55;19.60;;;12.90;;
58978;SDS011;44763;50.464;30.612;2023-11-21T03:16:00;18.50;;;14.00;;
58978;SDS011;44763;50.464;30.612;2023-11-21T03:18:02;17.90;;;13.60;;
58978;SDS011;44763;50.464;30.612;2023-11-21T03:20:05;20.10;;;13.20;;
58978;SDS011;44763;50.464;30.612;2023-11-21T03:22:08;24.70;;;15.20;;
58978;SDS011;44763;50.464;30.612;2023-11-21T03:24:11;21.20;;;16.00;;
58978;SDS011;44763;50.464;30.612;2023-11-21T03:26:13;18.50;;;14.50;;
58978;SDS011;44763;50.464;30.612;2023-11-21T03:28:15;20.80;;;15.20;;
58978;SDS011;44763;50.464;30.612;2023-11-21T03:30:17;22.00;;;15.30;;
58978;SDS011;44763;50.464;30.612;2023-11-21T03:32:19;21.90;;;15.40;;
58978;SDS011;44763;50.464;30.612;2023-11-21T03:34:24;20.00;;;14.10;;
58978;SDS011;44763;50.464;30.612;2023-11-21T03:36:29;22.00;;;14.40;;
58978;SDS011;44763;50.464;30.612;2023-11-21T03:38:31;20.80;;;15.60;;
58978;SDS011;44763;50.464;30.612;2023-11-21T03:40:33;20.80;;;13.70;;
58978;SDS011;44763;50.464;30.612;2023-11-21T03:42:35;19.00;;;13.70;;
58978;SDS011;44763;50.464;30.612;2023-11-21T03:44:37;24.30;;;15.60;;
58978;SDS011;44763;50.464;30.612;2023-11-21T03:46:39;20.30;;;14.50;;
58978;SDS011;44763;50.464;30.612;2023-11-21T03:48:43;18.60;;;15.00;;
58978;SDS011;44763;50.464;30.612;2023-11-21T03:50:45;22.00;;;15.50;;
58978;SDS011;44763;50.464;30.612;2023-11-21T03:52:47;19.50;;;13.40;;
58978;SDS011;44763;50.464;30.612;2023-11-21T03:54:49;19.90;;;14.50;;
58978;SDS011;44763;50.464;30.612;2023-11-21T03:56:51;21.70;;;15.10;;
58978;SDS011;44763;50.464;30.612;2023-11-21T03:58:53;19.30;;;13.90;;
58978;SDS011;44763;50.464;30.612;2023-11-21T04:00:55;19.40;;;13.20;;
58978;SDS011;44763;50.464;30.612;2023-11-21T04:02:58;22.50;;;14.70;;
58978;SDS011;44763;50.464;30.612;2023-11-21T04:05:00;21.20;;;14.50;;
58978;SDS011;44763;50.464;30.612;2023-11-21T04:07:03;20.40;;;15.00;;
58978;SDS011;44763;50.464;30.612;2023-11-21T04:09:06;20.00;;;15.80;;
58978;SDS011;44763;50.464;30.612;2023-11-21T04:11:08;21.00;;;16.60;;
58978;SDS011;44763;50.464;30.612;2023-11-21T04:13:14;26.70;;;16.30;;
58978;SDS011;44763;50.464;30.612;2023-11-21T04:15:16;20.80;;;14.50;;
58978;SDS011;44763;50.464;30.612;2023-11-21T04:17:20;21.00;;;14.30;;
58978;SDS011;44763;50.464;30.612;2023-11-21T04:19:24;27.50;;;16.00;;
58978;SDS011;44763;50.464;30.612;2023-11-21T04:21:26;26.40;;;16.60;;
58978;SDS011;44763;50.464;30.612;2023-11-21T04:23:29;23.50;;;16.60;;
58978;SDS011;44763;50.464;30.612;2023-11-21T04:25:33;23.60;;;17.10;;
58978;SDS011;44763;50.464;30.612;2023-11-21T04:27:35;21.10;;;15.80;;
58978;SDS011;44763;50.464;30.612;2023-11-21T04:29:37;26.90;;;18.40;;
58978;SDS011;44763;50.464;30.612;2023-11-21T04:31:39;22.80;;;17.00;;
58978;SDS011;44763;50.464;30.612;2023-11-21T04:33:41;25.60;;;17.40;;
58978;SDS011;44763;50.464;30.612;2023-11-21T04:35:43;27.30;;;18.70;;
58978;SDS011;44763;50.464;30.612;2023-11-21T04:37:44;24.80;;;17.10;;
58978;SDS011;44763;50.464;30.612;2023-11-21T04:39:46;24.60;;;17.90;;
58978;SDS011;44763;50.464;30.612;2023-11-21T04:41:49;22.10;;;15.70;;
58978;SDS011;44763;50.464;30.612;2023-11-21T04:43:52;21.60;;;15.60;;
58978;SDS011;44763;50.464;30.612;2023-11-21T04:45:55;26.40;;;16.70;;
58978;SDS011;44763;50.464;30.612;2023-11-21T04:47:58;23.50;;;16.40;;
58978;SDS011;44763;50.464;30.612;2023-11-21T04:50:00;25.90;;;18.40;;
58978;SDS011;44763;50.464;30.612;2023-11-21T04:52:02;23.80;;;18.40;;
58978;SDS011;44763;50.464;30.612;2023-11-21T04:54:05;23.90;;;16.90;;
58978;SDS011;44763;50.464;30.612;2023-11-21T04:56:07;20.10;;;16.10;;
58978;SDS011;44763;50.464;30.612;2023-11-21T04:58:09;20.60;;;16.00;;
58978;SDS011;44763;50.464;30.612;2023-11-21T05:00:13;24.50;;;16.00;;
58978;SDS011;44763;50.464;30.612;2023-11-21T05:02:18;27.70;;;14.70;;
58978;SDS011;44763;50.464;30.612;2023-11-21T05:04:35;20.20;;;14.60;;
58978;SDS011;44763;50.464;30.612;2023-11-21T05:06:37;24.70;;;17.50;;
58978;SDS011;44763;50.464;30.612;2023-11-21T05:08:40;25.30;;;16.00;;
58978;SDS011;44763;50.464;30.612;2023-11-21T05:10:42;23.00;;;13.50;;
58978;SDS011;44763;50.464;30.612;2023-11-21T05:12:44;18.40;;;13.50;;
58978;SDS011;44763;50.464;30.612;2023-11-21T05:14:46;19.40;;;15.30;;
58978;SDS011;44763;50.464;30.612;2023-11-21T05:16:50;22.70;;;14.80;;
58978;SDS011;44763;50.464;30.612;2023-11-21T05:18:53;20.10;;;14.70;;
58978;SDS011;44763;50.464;30.612;2023-11-21T05:20:59;18.60;;;14.40;;
58978;SDS011;44763;50.464;30.612;2023-11-21T05:23:02;19.10;;;13.70;;
58978;SDS011;44763;50.464;30.612;2023-11-21T05:25:05;22.30;;;15.10;;
58978;SDS011;44763;50.464;30.612;2023-11-21T05:27:09;25.70;;;15.90;;
58978;SDS011;44763;50.464;30.612;2023-11-21T05:29:12;26.50;;;17.10;;
58978;SDS011;44763;50.464;30.612;2023-11-21T05:31:14;23.80;;;16.30;;
58978;SDS011;44763;50.464;30.612;2023-11-21T05:33:17;25.40;;;16.70;;
58978;SDS011;44763;50.464;30.612;2023-11-21T05:35:20;23.80;;;16.00;;
58978;SDS011;44763;50.464;30.612;2023-11-21T05:37:22;24.00;;;16.50;;
58978;SDS011;44763;50.464;30.612;2023-11-21T05:39:24;20.40;;;15.30;;
58978;SDS011;44763;50.464;30.612;2023-11-21T05:41:27;18.40;;;13.40;;
58978;SDS011;44763;50.464;30.612;2023-11-21T05:43:30;21.00;;;15.80;;
58978;SDS011;44763;50.464;30.612;2023-11-21T05:45:32;23.30;;;15.00;;
58978;SDS011;44763;50.464;30.612;2023-11-21T05:47:34;24.80;;;17.70;;
58978;SDS011;44763;50.464;30.612;2023-11-21T05:49:48;24.10;;;15.40;;
58978;SDS011;44763;50.464;30.612;2023-11-21T05:51:53;22.50;;;15.70;;
58978;SDS011;44763;50.464;30.612;2023-11-21T05:53:55;24.90;;;15.00;;
58978;SDS011;44763;50.464;30.612;2023-11-21T05:55:57;19.00;;;14.80;;
58978;SDS011;44763;50.464;30.612;2023-11-21T05:57:59;24.40;;;15.00;;
58978;SDS011;44763;50.464;30.612;2023-11-21T06:00:05;21.80;;;15.60;;
58978;SDS011;44763;50.464;30.612;2023-11-21T06:02:37;20.70;;;14.80;;
58978;SDS011;44763;50.464;30.612;2023-11-21T06:04:40;21.20;;;15.60;;
58978;SDS011;44763;50.464;30.612;2023-11-21T06:06:43;21.60;;;14.40;;
58978;SDS011;44763;50.464;30.612;2023-11-21T06:08:46;25.60;;;15.10;;
58978;SDS011;44763;50.464;30.612;2023-11-21T06:10:48;23.20;;;16.80;;
58978;SDS011;44763;50.464;30.612;2023-11-21T06:12:51;28.10;;;17.50;;
58978;SDS011;44763;50.464;30.612;2023-11-21T06:14:55;21.30;;;14.80;;
58978;SDS011;44763;50.464;30.612;2023-11-21T06:16:57;20.70;;;14.00;;
58978;SDS011;44763;50.464;30.612;2023-11-21T06:18:59;22.00;;;15.80;;
58978;SDS011;44763;50.464;30.612;2023-11-21T06:21:03;23.30;;;14.00;;
58978;SDS011;44763;50.464;30.612;2023-11-21T06:23:05;22.60;;;16.00;;
58978;SDS011;44763;50.464;30.612;2023-11-21T06:25:08;20.50;;;15.20;;
58978;SDS011;44763;50.464;30.612;2023-11-21T06:27:11;24.60;;;16.40;;
58978;SDS011;44763;50.464;30.612;2023-11-21T06:29:13;22.20;;;15.70;;
58978;SDS011;44763;50.464;30.612;2023-11-21T06:31:16;20.80;;;15.90;;
58978;SDS011;44763;50.464;30.612;2023-11-21T06:33:19;22.90;;;14.10;;
58978;SDS011;44763;50.464;30.612;2023-11-21T06:35:23;21.20;;;15.00;;
58978;SDS011;44763;50.464;30.612;2023-11-21T06:37:29;23.20;;;14.90;;
58978;SDS011;44763;50.464;30.612;2023-11-21T06:39:31;22.40;;;15.50;;
58978;SDS011;44763;50.464;30.612;2023-11-21T06:41:34;21.70;;;15.60;;
58978;SDS011;44763;50.464;30.612;2023-11-21T06:43:36;20.20;;;16.50;;
58978;SDS011;44763;50.464;30.612;2023-11-21T06:45:39;22.20;;;15.40;;
58978;SDS011;44763;50.464;30.612;2023-11-21T06:47:40;24.40;;;17.20;;
58978;SDS011;44763;50.464;30.612;2023-11-21T06:49:43;22.40;;;15.80;;
58978;SDS011;44763;50.464;30.612;2023-11-21T06:51:45;37.70;;;18.80;;
58978;SDS011;44763;50.464;30.612;2023-11-21T06:53:47;24.20;;;17.00;;
58978;SDS011;44763;50.464;30.612;2023-11-21T06:55:49;24.00;;;17.10;;
58978;SDS011;44763;50.464;30.612;2023-11-21T06:57:51;23.30;;;15.20;;
58978;SDS011;44763;50.464;30.612;2023-11-21T06:59:54;26.80;;;15.70;;
58978;SDS011;44763;50.464;30.612;2023-11-21T07:01:59;26.40;;;16.10;;
58978;SDS011;44763;50.464;30.612;2023-11-21T07:04:01;22.80;;;16.10;;
58978;SDS011;44763;50.464;30.612;2023-11-21T07:06:04;21.90;;;16.00;;
58978;SDS011;44763;50.464;30.612;2023-11-21T07:08:06;23.50;;;17.00;;
58978;SDS011;44763;50.464;30.612;2023-11-21T07:10:10;24.30;;;18.20;;
58978;SDS011;44763;50.464;30.612;2023-11-21T07:12:12;28.60;;;17.20;;
58978;SDS011;44763;50.464;30.612;2023-11-21T07:14:15;25.90;;;19.20;;
58978;SDS011;44763;50.464;30.612;2023-11-21T07:16:18;25.30;;;16.70;;
58978;SDS011;44763;50.464;30.612;2023-11-21T07:18:20;29.80;;;19.40;;
58978;SDS011;44763;50.464;30.612;2023-11-21T07:20:22;27.50;;;17.70;;
58978;SDS011;44763;50.464;30.612;2023-11-21T07:22:24;29.30;;;19.40;;
58978;SDS011;44763;50.464;30.612;2023-11-21T07:24:26;27.40;;;20.20;;
58978;SDS011;44763;50.464;30.612;2023-11-21T07:26:28;29.40;;;20.10;;
58978;SDS011;44763;50.464;30.612;2023-11-21T07:28:32;31.40;;;21.60;;
58978;SDS011;44763;50.464;30.612;2023-11-21T07:30:34;38.10;;;24.30;;
58978;SDS011;44763;50.464;30.612;2023-11-21T07:32:36;30.40;;;21.90;;
58978;SDS011;44763;50.464;30.612;2023-11-21T07:34:42;31.80;;;23.50;;
58978;SDS011;44763;50.464;30.612;2023-11-21T07:36:44;34.10;;;21.60;;
58978;SDS011;44763;50.464;30.612;2023-11-21T07:38:46;37.90;;;23.00;;
58978;SDS011;44763;50.464;30.612;2023-11-21T07:40:49;33.90;;;22.00;;
58978;SDS011;44763;50.464;30.612;2023-11-21T07:42:52;34.30;;;21.90;;
58978;SDS011;44763;50.464;30.612;2023-11-21T07:44:54;31.30;;;21.20;;
58978;SDS011;44763;50.464;30.612;2023-11-21T07:46:56;35.10;;;24.20;;
58978;SDS011;44763;50.464;30.612;2023-11-21T07:48:59;40.00;;;24.50;;
58978;SDS011;44763;50.464;30.612;2023-11-21T07:51:02;37.60;;;26.10;;
58978;SDS011;44763;50.464;30.612;2023-11-21T07:53:07;35.30;;;24.60;;
58978;SDS011;44763;50.464;30.612;2023-11-21T07:55:09;42.40;;;27.00;;
58978;SDS011;44763;50.464;30.612;2023-11-21T07:57:11;40.40;;;27.60;;
58978;SDS011;44763;50.464;30.612;2023-11-21T08:01:39;47.80;;;30.80;;
58978;SDS011;44763;50.464;30.612;2023-11-21T08:03:45;51.20;;;29.00;;
58978;SDS011;44763;50.464;30.612;2023-11-21T08:05:48;41.00;;;25.70;;
58978;SDS011;44763;50.464;30.612;2023-11-21T08:07:50;43.90;;;29.00;;
58978;SDS011;44763;50.464;30.612;2023-11-21T08:09:52;46.20;;;29.50;;
58978;SDS011;44763;50.464;30.612;2023-11-21T08:11:54;49.80;;;30.10;;
58978;SDS011;44763;50.464;30.612;2023-11-21T08:13:56;51.40;;;32.10;;
58978;SDS011;44763;50.464;30.612;2023-11-21T08:15:59;46.80;;;31.20;;
58978;SDS011;44763;50.464;30.612;2023-11-21T08:18:04;48.60;;;32.20;;
58978;SDS011;44763;50.464;30.612;2023-11-21T08:20:09;53.30;;;35.10;;
58978;SDS011;44763;50.464;30.612;2023-11-21T08:22:12;52.80;;;33.10;;
58978;SDS011;44763;50.464;30.612;2023-11-21T08:24:15;47.50;;;28.70;;
58978;SDS011;44763;50.464;30.612;2023-11-21T08:26:17;41.10;;;27.70;;
58978;SDS011;44763;50.464;30.612;2023-11-21T08:28:20;38.40;;;24.40;;
58978;SDS011;44763;50.464;30.612;2023-11-21T08:30:23;32.40;;;20.60;;
58978;SDS011;44763;50.464;30.612;2023-11-21T08:32:26;22.60;;;16.50;;
58978;SDS011;44763;50.464;30.612;2023-11-21T08:34:28;20.30;;;14.00;;
58978;SDS011;44763;50.464;30.612;2023-11-21T08:36:30;20.60;;;13.20;;
58978;SDS011;44763;50.464;30.612;2023-11-21T08:38:33;17.30;;;13.60;;
58978;SDS011;44763;50.464;30.612;2023-11-21T08:40:39;22.10;;;15.90;;
58978;SDS011;44763;50.464;30.612;2023-11-21T08:42:41;28.90;;;18.80;;
58978;SDS011;44763;50.464;30.612;2023-11-21T08:44:45;29.20;;;19.60;;
58978;SDS011;44763;50.464;30.612;2023-11-21T08:46:47;32.00;;;20.00;;
58978;SDS011;44763;50.464;30.612;2023-11-21T08:48:49;27.70;;;18.60;;
58978;SDS011;44763;50.464;30.612;2023-11-21T08:50:54;25.70;;;18.10;;
58978;SDS011;44763;50.464;30.612;2023-11-21T08:52:55;26.70;;;19.40;;
58978;SDS011;44763;50.464;30.612;2023-11-21T08:54:57;33.80;;;21.60;;
58978;SDS011;44763;50.464;30.612;2023-11-21T08:57:04;30.30;;;20.50;;
58978;SDS011;44763;50.464;30.612;2023-11-21T08:59:06;28.90;;;20.70;;
58978;SDS011;44763;50.464;30.612;2023-11-21T09:01:09;29.20;;;20.30;;
58978;SDS011;44763;50.464;30.612;2023-11-21T09:03:12;32.50;;;19.50;;
58978;SDS011;44763;50.464;30.612;2023-11-21T09:05:15;26.40;;;18.90;;
58978;SDS011;44763;50.464;30.612;2023-11-21T09:07:20;25.10;;;17.40;;
58978;SDS011;44763;50.464;30.612;2023-11-21T09:09:22;27.70;;;18.10;;
58978;SDS011;44763;50.464;30.612;2023-11-21T09:11:26;23.00;;;16.30;;
58978;SDS011;44763;50.464;30.612;2023-11-21T09:13:35;32.00;;;19.20;;
58978;SDS011;44763;50.464;30.612;2023-11-21T09:15:38;23.00;;;16.30;;
58978;SDS011;44763;50.464;30.612;2023-11-21T09:17:40;20.20;;;15.30;;
58978;SDS011;44763;50.464;30.612;2023-11-21T09:19:42;20.40;;;16.10;;
58978;SDS011;44763;50.464;30.612;2023-11-21T09:21:51;22.70;;;17.90;;
58978;SDS011;44763;50.464;30.612;2023-11-21T09:23:53;30.70;;;20.40;;
58978;SDS011;44763;50.464;30.612;2023-11-21T09:25:55;30.60;;;18.60;;
58978;SDS011;44763;50.464;30.612;2023-11-21T09:27:59;34.70;;;19.70;;
58978;SDS011;44763;50.464;30.612;2023-11-21T09:30:01;25.00;;;16.60;;
58978;SDS011;44763;50.464;30.612;2023-11-21T09:32:07;25.30;;;16.60;;
58978;SDS011;44763;50.464;30.612;2023-11-21T09:34:10;27.20;;;16.50;;
58978;SDS011;44763;50.464;30.612;2023-11-21T09:36:13;27.70;;;17.70;;
58978;SDS011;44763;50.464;30.612;2023-11-21T09:38:16;25.30;;;16.80;;
58978;SDS011;44763;50.464;30.612;2023-11-21T09:40:19;20.60;;;15.70;;
58978;SDS011;44763;50.464;30.612;2023-11-21T09:42:32;28.60;;;18.50;;
58978;SDS011;44763;50.464;30.612;2023-11-21T09:47:21;31.70;;;19.90;;
58978;SDS011;44763;50.464;30.612;2023-11-21T09:49:24;23.20;;;16.90;;
58978;SDS011;44763;50.464;30.612;2023-11-21T09:51:30;26.40;;;19.50;;
58978;SDS011;44763;50.464;30.612;2023-11-21T09:53:34;34.90;;;19.50;;
58978;SDS011;44763;50.464;30.612;2023-11-21T09:55:37;30.50;;;17.50;;
58978;SDS011;44763;50.464;30.612;2023-11-21T09:57:42;26.10;;;17.40;;
58978;SDS011;44763;50.464;30.612;2023-11-21T09:59:44;26.50;;;18.30;;
58978;SDS011;44763;50.464;30.612;2023-11-21T10:01:48;28.70;;;18.50;;
58978;SDS011;44763;50.464;30.612;2023-11-21T10:03:52;27.80;;;18.90;;
58978;SDS011;44763;50.464;30.612;2023-11-21T10:05:56;31.20;;;20.80;;
58978;SDS011;44763;50.464;30.612;2023-11-21T10:08:11;34.50;;;22.00;;
58978;SDS011;44763;50.464;30.612;2023-11-21T10:10:14;31.30;;;20.90;;
58978;SDS011;44763;50.464;30.612;2023-11-21T10:12:20;30.30;;;20.80;;
58978;SDS011;44763;50.464;30.612;2023-11-21T10:14:25;29.90;;;20.70;;
58978;SDS011;44763;50.464;30.612;2023-11-21T10:18:34;29.60;;;19.90;;
58978;SDS011;44763;50.464;30.612;2023-11-21T10:22:41;29.60;;;20.40;;
58978;SDS011;44763;50.464;30.612;2023-11-21T10:24:45;31.40;;;21.50;;
58978;SDS011;44763;50.464;30.612;2023-11-21T10:26:54;31.00;;;21.20;;
58978;SDS011;44763;50.464;30.612;2023-11-21T10:29:00;31.60;;;19.90;;
58978;SDS011;44763;50.464;30.612;2023-11-21T10:31:07;29.90;;;20.70;;
58978;SDS011;44763;50.464;30.612;2023-11-21T10:33:10;31.50;;;19.80;;
58978;SDS011;44763;50.464;30.612;2023-11-21T10:35:12;31.30;;;22.50;;
58978;SDS011;44763;50.464;30.612;2023-11-21T10:37:14;32.40;;;21.50;;
58978;SDS011;44763;50.464;30.612;2023-11-21T10:39:20;26.60;;;18.50;;
58978;SDS011;44763;50.464;30.612;2023-11-21T10:41:25;29.10;;;18.90;;
58978;SDS011;44763;50.464;30.612;2023-11-21T10:43:28;23.80;;;16.90;;
58978;SDS011;44763;50.464;30.612;2023-11-21T10:45:33;29.60;;;19.60;;
58978;SDS011;44763;50.464;30.612;2023-11-21T10:47:35;31.70;;;20.40;;
58978;SDS011;44763;50.464;30.612;2023-11-21T10:49:38;27.30;;;19.90;;
58978;SDS011;44763;50.464;30.612;2023-11-21T10:51:43;32.40;;;20.10;;
58978;SDS011;44763;50.464;30.612;2023-11-21T10:53:45;29.10;;;21.00;;
58978;SDS011;44763;50.464;30.612;2023-11-21T10:55:49;30.70;;;20.80;;
58978;SDS011;44763;50.464;30.612;2023-11-21T10:57:52;23.10;;;17.20;;
58978;SDS011;44763;50.464;30.612;2023-11-21T10:59:55;24.40;;;17.90;;
58978;SDS011;44763;50.464;30.612;2023-11-21T11:01:58;23.00;;;17.00;;
58978;SDS011;44763;50.464;30.612;2023-11-21T11:04:02;25.80;;;19.50;;
58978;SDS011;44763;50.464;30.612;2023-11-21T11:06:11;23.70;;;17.40;;
58978;SDS011;44763;50.464;30.612;2023-11-21T11:08:14;22.10;;;16.00;;
58978;SDS011;44763;50.464;30.612;2023-11-21T11:10:20;25.00;;;16.80;;
58978;SDS011;44763;50.464;30.612;2023-11-21T11:12:24;21.50;;;15.30;;
58978;SDS011;44763;50.464;30.612;2023-11-21T11:14:28;25.10;;;16.90;;
58978;SDS011;44763;50.464;30.612;2023-11-21T11:16:31;25.60;;;16.20;;
58978;SDS011;44763;50.464;30.612;2023-11-21T11:18:33;24.70;;;16.80;;
58978;SDS011;44763;50.464;30.612;2023-11-21T11:20:36;25.10;;;17.20;;
58978;SDS011;44763;50.464;30.612;2023-11-21T11:27:21;26.20;;;18.00;;
58978;SDS011;44763;50.464;30.612;2023-11-21T11:32:26;26.50;;;18.30;;
58978;SDS011;44763;50.464;30.612;2023-11-21T11:34:41;23.00;;;16.50;;
58978;SDS011;44763;50.464;30.612;2023-11-21T11:36:58;36.20;;;21.60;;
58978;SDS011;44763;50.464;30.612;2023-11-21T11:39:26;24.10;;;17.00;;
58978;SDS011;44763;50.464;30.612;2023-11-21T11:41:31;24.90;;;16.80;;
58978;SDS011;44763;50.464;30.612;2023-11-21T11:43:36;26.10;;;18.70;;
58978;SDS011;44763;50.464;30.612;2023-11-21T11:45:46;25.90;;;18.40;;
58978;SDS011;44763;50.464;30.612;2023-11-21T11:47:56;26.40;;;18.00;;
58978;SDS011;44763;50.464;30.612;2023-11-21T11:50:08;23.50;;;17.40;;
58978;SDS011;44763;50.464;30.612;2023-11-21T11:54:43;25.10;;;18.60;;
58978;SDS011;44763;50.464;30.612;2023-11-21T11:56:45;25.70;;;17.80;;
58978;SDS011;44763;50.464;30.612;2023-11-21T11:58:49;23.60;;;16.70;;
58978;SDS011;44763;50.464;30.612;2023-11-21T12:00:53;19.20;;;15.20;;
58978;SDS011;44763;50.464;30.612;2023-11-21T12:02:57;20.90;;;14.40;;
58978;SDS011;44763;50.464;30.612;2023-11-21T12:05:01;17.90;;;14.40;;
58978;SDS011;44763;50.464;30.612;2023-11-21T12:07:11;20.40;;;16.00;;
58978;SDS011;44763;50.464;30.612;2023-11-21T12:09:19;21.70;;;15.70;;
58978;SDS011;44763;50.464;30.612;2023-11-21T12:11:29;26.30;;;17.40;;
58978;SDS011;44763;50.464;30.612;2023-11-21T12:13:33;19.90;;;16.30;;
58978;SDS011;44763;50.464;30.612;2023-11-21T12:15:35;17.60;;;14.00;;